Nearby METAR Reports

Aktualna pogoda na lotniskach (dane METAR)

 

EPGD - Gdansk/Rebiechow, Poland
Distance from station: ENE 27mi, 44km
Updated: Tue, 25-Jun-2019 9:00am PDT
Clear
Clear
 Wind from E
Wind: E 9 mph , 15 km/h
Temperature: 81°F , 27°C
Heat Index: 81°F , 27°C
Dew Point: 59°F , 15°C
Humidity: 48%
Barometer: 30.24 inHg , 1024 hPa
Summary: Clear
Visibility: greater than 7 miles , 10 km
2019/06/25 16:00 EPGD 251600Z 10008KT 060V130 CAVOK 27/15 Q1024
EPSC - Szczecin/Golenio, Poland
Distance from station: WSW 128mi, 205km
Updated: Tue, 25-Jun-2019 9:00am PDT
Clear
Clear
 Wind from SSE
Wind: SSE 7 mph , 11 km/h
Temperature: 86°F , 30°C
Heat Index: 85°F , 29°C
Dew Point: 59°F , 15°C
Humidity: 40%
Barometer: 30.15 inHg , 1021 hPa
Summary: Clear
Visibility: greater than 7 miles , 10 km
2019/06/25 16:00 EPSC 251600Z 16006KT 130V190 CAVOK 30/15 Q1021
 
EPPO - Poznan/Lawica, Poland
Distance from station: SSW 131mi, 210km
Updated: Tue, 25-Jun-2019 9:00am PDT
Clear
Clear
 Wind from SSE
Wind: SSE 6 mph , 9 km/h
Temperature: 91°F , 33°C
Dew Point: 61°F , 16°C
Humidity: 36%
Barometer: 30.18 inHg , 1022 hPa
Summary: Clear
Visibility: greater than 7 miles , 10 km
2019/06/25 16:00 EPPO 251600Z 15005KT CAVOK 33/16 Q1022
EPLL - Lodz/Lublinek, Poland
Distance from station: SSE 184mi, 296km
Updated: Tue, 25-Jun-2019 9:00am PDT
Clear
Clear
 Wind from SSE
Wind: SSE 6 mph , 9 km/h
Temperature: 90°F , 32°C
Dew Point: 59°F , 15°C
Humidity: 36%
Barometer: 30.21 inHg , 1023 hPa
Summary: Clear
Visibility: greater than 7 miles , 10 km
2019/06/25 16:00 EPLL 251600Z 15005KT 090V220 CAVOK 32/15 Q1023
 
EPWA - Warsaw/Okecie, Poland
Distance from station: SE 191mi, 307km
Updated: Tue, 25-Jun-2019 9:00am PDT
Clear
Clear
 Wind from SSE
Wind: SSE 12 mph , 19 km/h
Temperature: 88°F , 31°C
Dew Point: 59°F , 15°C
Humidity: 38%
Barometer: 30.24 inHg , 1024 hPa
Summary: Clear
Visibility: greater than 7 miles , 10 km
2019/06/25 16:00 EPWA 251600Z 15010KT CAVOK 31/15 Q1024 NOSIG
EPWR - Wroclaw/Strachow, Poland
Distance from station: S 219mi, 352km
Updated: Tue, 25-Jun-2019 9:00am PDT
Clear
Clear
 Wind from SSE
Wind: SSE 9 mph , 15 km/h
Temperature: 90°F , 32°C
Heat Index: 91°F , 33°C
Dew Point: 63°F , 17°C
Humidity: 41%
Barometer: 30.18 inHg , 1022 hPa
Summary: Clear
Visibility: greater than 7 miles , 10 km
2019/06/25 16:00 EPWR 251600Z 16008KT CAVOK 32/17 Q1022

Metar display script from Saratoga-Weather.org